Kocubej, Russia
Current Conditions -  °F | °C
As of 7:00 PM on Friday 24 Oct 2014 (Local Time) from URML Reporting Station
Light Rain Light Rain  
Wind Chill: 44°   Ceiling: 1100
Heat Index: 48°   Visibility: 2mi
Dew Point: 46°   Wind: 9mph
Humidity: 93%   Direction: 340°NNW
Pressure: 30.18"   Gusts: NA
Location:  44.4°N, 46.55°E
Report Text: URML 241600Z 34004MPS 3200 -RA BR OVC011 09/08 Q1022 TEMPO 1000RA BR OVC003 RMK MT OBSC QFE766/1022
Loading
Personal Weather Stations






























Interactive Weather Map
Tropical Storm Tracking
New forecast layout! Learn more

10-Day Weather Forecast

Advertisements
Track Severe Weather on mobile